sensor_id;sensor_type;location;lat;lon;timestamp;P1;durP1;ratioP1;P2;durP2;ratioP2
12356;SDS011;6243;51.244;6.774;2022-10-23T00:00:59;6.27;;;3.43;;
12356;SDS011;6243;51.244;6.774;2022-10-23T00:03:25;6.97;;;3.10;;
12356;SDS011;6243;51.244;6.774;2022-10-23T00:05:52;7.07;;;3.27;;
12356;SDS011;6243;51.244;6.774;2022-10-23T00:08:17;7.93;;;3.30;;
12356;SDS011;6243;51.244;6.774;2022-10-23T00:10:43;8.07;;;3.57;;
12356;SDS011;6243;51.244;6.774;2022-10-23T00:13:08;7.53;;;3.00;;
12356;SDS011;6243;51.244;6.774;2022-10-23T00:15:34;10.87;;;3.53;;
12356;SDS011;6243;51.244;6.774;2022-10-23T00:18:00;9.23;;;3.40;;
12356;SDS011;6243;51.244;6.774;2022-10-23T00:20:26;4.33;;;2.90;;
12356;SDS011;6243;51.244;6.774;2022-10-23T00:22:53;7.63;;;3.50;;
12356;SDS011;6243;51.244;6.774;2022-10-23T00:25:18;7.40;;;3.03;;
12356;SDS011;6243;51.244;6.774;2022-10-23T00:27:44;6.03;;;2.77;;
12356;SDS011;6243;51.244;6.774;2022-10-23T00:30:10;5.77;;;3.17;;
12356;SDS011;6243;51.244;6.774;2022-10-23T00:32:36;7.17;;;3.00;;
12356;SDS011;6243;51.244;6.774;2022-10-23T00:35:02;6.47;;;2.83;;
12356;SDS011;6243;51.244;6.774;2022-10-23T00:37:29;10.53;;;3.13;;
12356;SDS011;6243;51.244;6.774;2022-10-23T00:39:56;7.57;;;3.10;;
12356;SDS011;6243;51.244;6.774;2022-10-23T00:42:22;7.10;;;3.03;;
12356;SDS011;6243;51.244;6.774;2022-10-23T00:45:08;6.87;;;2.97;;
12356;SDS011;6243;51.244;6.774;2022-10-23T00:47:37;9.97;;;3.07;;
12356;SDS011;6243;51.244;6.774;2022-10-23T00:50:03;4.97;;;3.00;;
12356;SDS011;6243;51.244;6.774;2022-10-23T00:52:29;9.50;;;3.13;;
12356;SDS011;6243;51.244;6.774;2022-10-23T00:54:56;10.27;;;3.33;;
12356;SDS011;6243;51.244;6.774;2022-10-23T00:57:22;8.30;;;3.40;;
12356;SDS011;6243;51.244;6.774;2022-10-23T00:59:48;6.47;;;2.83;;
12356;SDS011;6243;51.244;6.774;2022-10-23T01:02:14;5.53;;;3.00;;
12356;SDS011;6243;51.244;6.774;2022-10-23T01:04:40;7.30;;;3.10;;
12356;SDS011;6243;51.244;6.774;2022-10-23T01:07:06;6.33;;;2.97;;
12356;SDS011;6243;51.244;6.774;2022-10-23T01:09:38;8.63;;;3.47;;
12356;SDS011;6243;51.244;6.774;2022-10-23T01:12:14;7.73;;;3.07;;
12356;SDS011;6243;51.244;6.774;2022-10-23T01:14:47;5.93;;;2.97;;
12356;SDS011;6243;51.244;6.774;2022-10-23T01:17:21;6.83;;;2.83;;
12356;SDS011;6243;51.244;6.774;2022-10-23T01:19:56;8.00;;;3.00;;
12356;SDS011;6243;51.244;6.774;2022-10-23T01:22:53;8.13;;;2.77;;
12356;SDS011;6243;51.244;6.774;2022-10-23T01:25:39;8.03;;;3.10;;
12356;SDS011;6243;51.244;6.774;2022-10-23T01:28:29;7.47;;;2.80;;
12356;SDS011;6243;51.244;6.774;2022-10-23T01:30:58;7.07;;;2.97;;
12356;SDS011;6243;51.244;6.774;2022-10-23T01:33:30;10.63;;;3.43;;
12356;SDS011;6243;51.244;6.774;2022-10-23T01:36:01;7.03;;;3.20;;
12356;SDS011;6243;51.244;6.774;2022-10-23T01:38:31;7.50;;;3.27;;
12356;SDS011;6243;51.244;6.774;2022-10-23T01:41:06;6.30;;;2.83;;
12356;SDS011;6243;51.244;6.774;2022-10-23T01:43:39;10.20;;;3.53;;
12356;SDS011;6243;51.244;6.774;2022-10-23T01:46:09;5.93;;;3.23;;
12356;SDS011;6243;51.244;6.774;2022-10-23T01:48:37;4.37;;;2.70;;
12356;SDS011;6243;51.244;6.774;2022-10-23T01:51:03;6.97;;;3.20;;
12356;SDS011;6243;51.244;6.774;2022-10-23T01:53:33;5.43;;;2.60;;
12356;SDS011;6243;51.244;6.774;2022-10-23T01:56:05;5.07;;;2.83;;
12356;SDS011;6243;51.244;6.774;2022-10-23T01:58:32;4.53;;;2.80;;
12356;SDS011;6243;51.244;6.774;2022-10-23T02:01:02;6.83;;;2.80;;
12356;SDS011;6243;51.244;6.774;2022-10-23T02:03:31;6.00;;;2.90;;
12356;SDS011;6243;51.244;6.774;2022-10-23T02:05:59;5.00;;;3.00;;
12356;SDS011;6243;51.244;6.774;2022-10-23T02:08:25;5.60;;;2.87;;
12356;SDS011;6243;51.244;6.774;2022-10-23T02:10:51;5.10;;;2.70;;
12356;SDS011;6243;51.244;6.774;2022-10-23T02:13:25;7.37;;;3.00;;
12356;SDS011;6243;51.244;6.774;2022-10-23T02:15:57;4.67;;;3.13;;
12356;SDS011;6243;51.244;6.774;2022-10-23T02:18:31;6.13;;;3.17;;
12356;SDS011;6243;51.244;6.774;2022-10-23T02:21:03;8.27;;;2.87;;
12356;SDS011;6243;51.244;6.774;2022-10-23T02:23:32;7.67;;;3.03;;
12356;SDS011;6243;51.244;6.774;2022-10-23T02:26:04;7.33;;;3.00;;
12356;SDS011;6243;51.244;6.774;2022-10-23T02:28:35;5.37;;;2.53;;
12356;SDS011;6243;51.244;6.774;2022-10-23T02:31:05;5.00;;;2.57;;
12356;SDS011;6243;51.244;6.774;2022-10-23T02:33:38;6.87;;;3.17;;
12356;SDS011;6243;51.244;6.774;2022-10-23T02:36:04;4.37;;;2.47;;
12356;SDS011;6243;51.244;6.774;2022-10-23T02:38:32;4.13;;;2.60;;
12356;SDS011;6243;51.244;6.774;2022-10-23T02:41:02;7.30;;;2.97;;
12356;SDS011;6243;51.244;6.774;2022-10-23T02:43:50;7.00;;;3.10;;
12356;SDS011;6243;51.244;6.774;2022-10-23T02:46:27;5.90;;;2.87;;
12356;SDS011;6243;51.244;6.774;2022-10-23T02:49:05;9.87;;;3.60;;
12356;SDS011;6243;51.244;6.774;2022-10-23T02:51:39;6.13;;;3.20;;
12356;SDS011;6243;51.244;6.774;2022-10-23T02:54:19;5.17;;;2.83;;
12356;SDS011;6243;51.244;6.774;2022-10-23T02:56:57;5.97;;;2.90;;
12356;SDS011;6243;51.244;6.774;2022-10-23T02:59:30;7.33;;;3.10;;
12356;SDS011;6243;51.244;6.774;2022-10-23T03:02:01;5.20;;;2.63;;
12356;SDS011;6243;51.244;6.774;2022-10-23T03:04:32;3.60;;;2.73;;
12356;SDS011;6243;51.244;6.774;2022-10-23T03:06:59;6.00;;;2.70;;
12356;SDS011;6243;51.244;6.774;2022-10-23T03:09:25;6.20;;;3.40;;
12356;SDS011;6243;51.244;6.774;2022-10-23T03:11:51;7.43;;;3.27;;
12356;SDS011;6243;51.244;6.774;2022-10-23T03:14:16;7.83;;;2.80;;
12356;SDS011;6243;51.244;6.774;2022-10-23T03:16:42;3.90;;;2.93;;
12356;SDS011;6243;51.244;6.774;2022-10-23T03:19:07;5.90;;;2.70;;
12356;SDS011;6243;51.244;6.774;2022-10-23T03:21:35;6.40;;;2.50;;
12356;SDS011;6243;51.244;6.774;2022-10-23T03:24:00;5.27;;;2.90;;
12356;SDS011;6243;51.244;6.774;2022-10-23T03:26:25;7.10;;;2.80;;
12356;SDS011;6243;51.244;6.774;2022-10-23T03:28:51;5.33;;;2.80;;
12356;SDS011;6243;51.244;6.774;2022-10-23T03:31:16;9.27;;;3.37;;
12356;SDS011;6243;51.244;6.774;2022-10-23T03:33:42;5.17;;;3.00;;
12356;SDS011;6243;51.244;6.774;2022-10-23T03:36:08;6.37;;;3.17;;
12356;SDS011;6243;51.244;6.774;2022-10-23T03:38:35;6.20;;;2.47;;
12356;SDS011;6243;51.244;6.774;2022-10-23T03:41:00;4.53;;;2.40;;
12356;SDS011;6243;51.244;6.774;2022-10-23T03:43:26;6.13;;;2.70;;
12356;SDS011;6243;51.244;6.774;2022-10-23T03:45:51;5.20;;;2.50;;
12356;SDS011;6243;51.244;6.774;2022-10-23T03:48:17;4.70;;;2.47;;
12356;SDS011;6243;51.244;6.774;2022-10-23T03:50:42;4.13;;;2.80;;
12356;SDS011;6243;51.244;6.774;2022-10-23T03:53:08;10.43;;;3.07;;
12356;SDS011;6243;51.244;6.774;2022-10-23T03:55:35;5.53;;;3.23;;
12356;SDS011;6243;51.244;6.774;2022-10-23T03:58:00;5.00;;;2.83;;
12356;SDS011;6243;51.244;6.774;2022-10-23T04:00:26;7.03;;;2.90;;
12356;SDS011;6243;51.244;6.774;2022-10-23T04:02:51;4.03;;;2.63;;
12356;SDS011;6243;51.244;6.774;2022-10-23T04:05:17;7.03;;;2.87;;
12356;SDS011;6243;51.244;6.774;2022-10-23T04:07:42;6.20;;;2.80;;
12356;SDS011;6243;51.244;6.774;2022-10-23T04:10:08;5.40;;;2.77;;
12356;SDS011;6243;51.244;6.774;2022-10-23T04:12:35;6.10;;;2.93;;
12356;SDS011;6243;51.244;6.774;2022-10-23T04:15:00;6.93;;;2.60;;
12356;SDS011;6243;51.244;6.774;2022-10-23T04:17:26;4.37;;;2.97;;
12356;SDS011;6243;51.244;6.774;2022-10-23T04:19:52;8.13;;;2.97;;
12356;SDS011;6243;51.244;6.774;2022-10-23T04:22:17;8.60;;;2.97;;
12356;SDS011;6243;51.244;6.774;2022-10-23T04:24:42;6.30;;;2.60;;
12356;SDS011;6243;51.244;6.774;2022-10-23T04:27:08;5.53;;;3.40;;
12356;SDS011;6243;51.244;6.774;2022-10-23T04:29:35;5.80;;;2.63;;
12356;SDS011;6243;51.244;6.774;2022-10-23T04:32:00;5.07;;;2.50;;
12356;SDS011;6243;51.244;6.774;2022-10-23T04:34:26;6.77;;;3.07;;
12356;SDS011;6243;51.244;6.774;2022-10-23T04:36:51;10.10;;;3.00;;
12356;SDS011;6243;51.244;6.774;2022-10-23T04:39:17;4.50;;;2.57;;
12356;SDS011;6243;51.244;6.774;2022-10-23T04:41:42;6.13;;;3.00;;
12356;SDS011;6243;51.244;6.774;2022-10-23T04:44:08;7.67;;;2.40;;
12356;SDS011;6243;51.244;6.774;2022-10-23T04:46:35;6.13;;;2.43;;
12356;SDS011;6243;51.244;6.774;2022-10-23T04:49:00;4.00;;;2.73;;
12356;SDS011;6243;51.244;6.774;2022-10-23T04:51:26;6.00;;;2.17;;
12356;SDS011;6243;51.244;6.774;2022-10-23T04:53:51;4.27;;;2.30;;
12356;SDS011;6243;51.244;6.774;2022-10-23T04:56:17;5.47;;;2.50;;
12356;SDS011;6243;51.244;6.774;2022-10-23T04:58:42;8.63;;;3.10;;
12356;SDS011;6243;51.244;6.774;2022-10-23T05:01:08;10.03;;;2.60;;
12356;SDS011;6243;51.244;6.774;2022-10-23T05:03:35;5.80;;;2.77;;
12356;SDS011;6243;51.244;6.774;2022-10-23T05:06:01;7.00;;;2.87;;
12356;SDS011;6243;51.244;6.774;2022-10-23T05:08:27;7.57;;;2.73;;
12356;SDS011;6243;51.244;6.774;2022-10-23T05:10:53;6.80;;;2.40;;
12356;SDS011;6243;51.244;6.774;2022-10-23T05:13:18;4.97;;;2.90;;
12356;SDS011;6243;51.244;6.774;2022-10-23T05:15:45;6.07;;;3.07;;
12356;SDS011;6243;51.244;6.774;2022-10-23T05:18:12;4.87;;;2.53;;
12356;SDS011;6243;51.244;6.774;2022-10-23T05:20:42;4.60;;;2.63;;
12356;SDS011;6243;51.244;6.774;2022-10-23T05:23:13;5.03;;;2.27;;
12356;SDS011;6243;51.244;6.774;2022-10-23T05:25:42;4.03;;;2.83;;
12356;SDS011;6243;51.244;6.774;2022-10-23T05:28:07;5.63;;;3.00;;
12356;SDS011;6243;51.244;6.774;2022-10-23T05:30:33;4.20;;;2.70;;
12356;SDS011;6243;51.244;6.774;2022-10-23T05:32:58;5.13;;;2.67;;
12356;SDS011;6243;51.244;6.774;2022-10-23T05:35:25;5.97;;;2.90;;
12356;SDS011;6243;51.244;6.774;2022-10-23T05:37:52;7.80;;;2.67;;
12356;SDS011;6243;51.244;6.774;2022-10-23T05:40:21;3.80;;;2.40;;
12356;SDS011;6243;51.244;6.774;2022-10-23T05:42:46;4.80;;;2.90;;
12356;SDS011;6243;51.244;6.774;2022-10-23T05:45:12;8.03;;;2.50;;
12356;SDS011;6243;51.244;6.774;2022-10-23T05:47:37;3.80;;;2.33;;
12356;SDS011;6243;51.244;6.774;2022-10-23T05:50:03;6.37;;;2.23;;
12356;SDS011;6243;51.244;6.774;2022-10-23T05:52:29;6.80;;;2.80;;
12356;SDS011;6243;51.244;6.774;2022-10-23T05:54:56;4.97;;;2.27;;
12356;SDS011;6243;51.244;6.774;2022-10-23T05:57:21;6.40;;;2.50;;
12356;SDS011;6243;51.244;6.774;2022-10-23T05:59:47;3.40;;;2.20;;
12356;SDS011;6243;51.244;6.774;2022-10-23T06:02:12;9.97;;;2.77;;
12356;SDS011;6243;51.244;6.774;2022-10-23T06:04:38;4.50;;;2.30;;
12356;SDS011;6243;51.244;6.774;2022-10-23T06:07:03;6.37;;;2.50;;
12356;SDS011;6243;51.244;6.774;2022-10-23T06:09:29;6.20;;;2.80;;
12356;SDS011;6243;51.244;6.774;2022-10-23T06:11:55;5.47;;;2.77;;
12356;SDS011;6243;51.244;6.774;2022-10-23T06:14:21;4.93;;;2.63;;
12356;SDS011;6243;51.244;6.774;2022-10-23T06:16:46;4.57;;;2.70;;
12356;SDS011;6243;51.244;6.774;2022-10-23T06:19:12;5.03;;;2.70;;
12356;SDS011;6243;51.244;6.774;2022-10-23T06:21:37;4.93;;;2.50;;
12356;SDS011;6243;51.244;6.774;2022-10-23T06:24:04;3.53;;;2.40;;
12356;SDS011;6243;51.244;6.774;2022-10-23T06:26:30;7.10;;;2.53;;
12356;SDS011;6243;51.244;6.774;2022-10-23T06:28:56;9.20;;;3.20;;
12356;SDS011;6243;51.244;6.774;2022-10-23T06:31:22;3.50;;;2.27;;
12356;SDS011;6243;51.244;6.774;2022-10-23T06:33:47;6.03;;;2.40;;
12356;SDS011;6243;51.244;6.774;2022-10-23T06:36:13;7.63;;;3.13;;
12356;SDS011;6243;51.244;6.774;2022-10-23T06:38:39;5.37;;;2.43;;
12356;SDS011;6243;51.244;6.774;2022-10-23T06:41:05;6.50;;;2.47;;
12356;SDS011;6243;51.244;6.774;2022-10-23T06:43:31;6.53;;;2.50;;
12356;SDS011;6243;51.244;6.774;2022-10-23T06:46:00;5.80;;;2.80;;
12356;SDS011;6243;51.244;6.774;2022-10-23T06:48:26;5.57;;;2.77;;
12356;SDS011;6243;51.244;6.774;2022-10-23T06:50:51;3.57;;;2.40;;
12356;SDS011;6243;51.244;6.774;2022-10-23T06:53:17;9.70;;;2.27;;
12356;SDS011;6243;51.244;6.774;2022-10-23T06:55:42;3.50;;;2.37;;
12356;SDS011;6243;51.244;6.774;2022-10-23T06:58:08;5.43;;;2.13;;
12356;SDS011;6243;51.244;6.774;2022-10-23T07:00:33;5.33;;;2.47;;
12356;SDS011;6243;51.244;6.774;2022-10-23T07:03:00;6.00;;;2.37;;
12356;SDS011;6243;51.244;6.774;2022-10-23T07:05:26;4.63;;;2.27;;
12356;SDS011;6243;51.244;6.774;2022-10-23T07:07:51;4.63;;;2.30;;
12356;SDS011;6243;51.244;6.774;2022-10-23T07:10:17;3.80;;;2.03;;
12356;SDS011;6243;51.244;6.774;2022-10-23T07:12:42;5.40;;;2.47;;
12356;SDS011;6243;51.244;6.774;2022-10-23T07:15:08;4.33;;;2.27;;
12356;SDS011;6243;51.244;6.774;2022-10-23T07:17:33;4.33;;;2.20;;
12356;SDS011;6243;51.244;6.774;2022-10-23T07:20:00;4.77;;;2.13;;
12356;SDS011;6243;51.244;6.774;2022-10-23T07:22:26;4.07;;;2.30;;
12356;SDS011;6243;51.244;6.774;2022-10-23T07:24:51;3.63;;;2.03;;
12356;SDS011;6243;51.244;6.774;2022-10-23T07:27:17;4.27;;;2.33;;
12356;SDS011;6243;51.244;6.774;2022-10-23T07:29:42;5.43;;;2.50;;
12356;SDS011;6243;51.244;6.774;2022-10-23T07:32:08;10.87;;;2.53;;
12356;SDS011;6243;51.244;6.774;2022-10-23T07:34:33;7.27;;;2.70;;
12356;SDS011;6243;51.244;6.774;2022-10-23T07:37:00;4.50;;;2.20;;
12356;SDS011;6243;51.244;6.774;2022-10-23T07:39:25;6.63;;;2.77;;
12356;SDS011;6243;51.244;6.774;2022-10-23T07:41:51;5.60;;;2.30;;
12356;SDS011;6243;51.244;6.774;2022-10-23T07:44:16;7.73;;;2.53;;
12356;SDS011;6243;51.244;6.774;2022-10-23T07:46:42;3.77;;;2.30;;
12356;SDS011;6243;51.244;6.774;2022-10-23T07:49:08;3.63;;;2.13;;
12356;SDS011;6243;51.244;6.774;2022-10-23T07:51:34;4.43;;;2.37;;
12356;SDS011;6243;51.244;6.774;2022-10-23T07:54:01;6.23;;;2.50;;
12356;SDS011;6243;51.244;6.774;2022-10-23T07:56:27;3.73;;;2.03;;
12356;SDS011;6243;51.244;6.774;2022-10-23T07:58:52;6.33;;;2.43;;
12356;SDS011;6243;51.244;6.774;2022-10-23T08:01:19;3.83;;;2.20;;
12356;SDS011;6243;51.244;6.774;2022-10-23T08:03:47;5.03;;;2.10;;
12356;SDS011;6243;51.244;6.774;2022-10-23T08:06:13;5.33;;;2.40;;
12356;SDS011;6243;51.244;6.774;2022-10-23T08:08:38;6.47;;;2.70;;
12356;SDS011;6243;51.244;6.774;2022-10-23T08:11:05;3.73;;;2.10;;
12356;SDS011;6243;51.244;6.774;2022-10-23T08:13:31;7.60;;;2.23;;
12356;SDS011;6243;51.244;6.774;2022-10-23T08:15:56;4.13;;;2.10;;
12356;SDS011;6243;51.244;6.774;2022-10-23T08:18:22;3.93;;;2.20;;
12356;SDS011;6243;51.244;6.774;2022-10-23T08:20:47;4.67;;;2.03;;
12356;SDS011;6243;51.244;6.774;2022-10-23T08:23:14;4.83;;;2.10;;
12356;SDS011;6243;51.244;6.774;2022-10-23T08:25:41;4.37;;;1.80;;
12356;SDS011;6243;51.244;6.774;2022-10-23T08:28:08;2.83;;;2.10;;
12356;SDS011;6243;51.244;6.774;2022-10-23T08:30:34;5.43;;;2.13;;
12356;SDS011;6243;51.244;6.774;2022-10-23T08:33:01;3.13;;;2.00;;
12356;SDS011;6243;51.244;6.774;2022-10-23T08:35:26;4.10;;;1.87;;
12356;SDS011;6243;51.244;6.774;2022-10-23T08:37:52;2.27;;;1.83;;
12356;SDS011;6243;51.244;6.774;2022-10-23T08:40:19;5.50;;;1.87;;
12356;SDS011;6243;51.244;6.774;2022-10-23T08:42:49;5.20;;;1.90;;
12356;SDS011;6243;51.244;6.774;2022-10-23T08:45:27;2.83;;;1.73;;
12356;SDS011;6243;51.244;6.774;2022-10-23T08:47:58;2.03;;;1.80;;
12356;SDS011;6243;51.244;6.774;2022-10-23T08:50:29;7.37;;;1.80;;
12356;SDS011;6243;51.244;6.774;2022-10-23T08:52:59;4.63;;;1.70;;
12356;SDS011;6243;51.244;6.774;2022-10-23T08:55:29;2.53;;;1.67;;
12356;SDS011;6243;51.244;6.774;2022-10-23T08:57:57;2.27;;;1.90;;
12356;SDS011;6243;51.244;6.774;2022-10-23T09:00:29;7.27;;;2.10;;
12356;SDS011;6243;51.244;6.774;2022-10-23T09:02:54;2.27;;;1.73;;
12356;SDS011;6243;51.244;6.774;2022-10-23T09:05:34;3.27;;;1.80;;
12356;SDS011;6243;51.244;6.774;2022-10-23T09:08:22;4.43;;;1.77;;
12356;SDS011;6243;51.244;6.774;2022-10-23T09:10:57;6.37;;;2.60;;
12356;SDS011;6243;51.244;6.774;2022-10-23T09:16:22;3.57;;;1.87;;
12356;SDS011;6243;51.244;6.774;2022-10-23T09:18:58;7.93;;;1.90;;
12356;SDS011;6243;51.244;6.774;2022-10-23T09:21:24;3.03;;;1.93;;
12356;SDS011;6243;51.244;6.774;2022-10-23T09:23:51;3.37;;;1.80;;
12356;SDS011;6243;51.244;6.774;2022-10-23T09:26:17;2.40;;;1.63;;
12356;SDS011;6243;51.244;6.774;2022-10-23T09:28:44;4.30;;;1.73;;
12356;SDS011;6243;51.244;6.774;2022-10-23T09:31:11;6.37;;;2.30;;
12356;SDS011;6243;51.244;6.774;2022-10-23T09:33:39;3.63;;;1.67;;
12356;SDS011;6243;51.244;6.774;2022-10-23T09:36:05;2.13;;;1.43;;
12356;SDS011;6243;51.244;6.774;2022-10-23T09:38:34;3.07;;;1.87;;
12356;SDS011;6243;51.244;6.774;2022-10-23T09:41:03;8.37;;;1.83;;
12356;SDS011;6243;51.244;6.774;2022-10-23T09:43:31;3.07;;;1.90;;
12356;SDS011;6243;51.244;6.774;2022-10-23T09:45:57;5.53;;;1.70;;
12356;SDS011;6243;51.244;6.774;2022-10-23T09:48:24;2.90;;;1.80;;
12356;SDS011;6243;51.244;6.774;2022-10-23T09:50:52;3.57;;;2.13;;
12356;SDS011;6243;51.244;6.774;2022-10-23T09:53:22;3.57;;;1.77;;
12356;SDS011;6243;51.244;6.774;2022-10-23T09:55:51;3.57;;;1.80;;
12356;SDS011;6243;51.244;6.774;2022-10-23T09:58:19;6.17;;;2.23;;
12356;SDS011;6243;51.244;6.774;2022-10-23T10:00:48;3.63;;;1.50;;
12356;SDS011;6243;51.244;6.774;2022-10-23T10:03:18;7.10;;;1.60;;
12356;SDS011;6243;51.244;6.774;2022-10-23T10:05:51;3.00;;;1.83;;
12356;SDS011;6243;51.244;6.774;2022-10-23T10:08:21;6.27;;;2.17;;
12356;SDS011;6243;51.244;6.774;2022-10-23T10:10:53;6.73;;;2.33;;
12356;SDS011;6243;51.244;6.774;2022-10-23T10:13:29;3.17;;;1.73;;
12356;SDS011;6243;51.244;6.774;2022-10-23T10:16:08;3.40;;;1.80;;
12356;SDS011;6243;51.244;6.774;2022-10-23T10:18:39;2.43;;;1.60;;
12356;SDS011;6243;51.244;6.774;2022-10-23T10:21:13;5.83;;;1.77;;
12356;SDS011;6243;51.244;6.774;2022-10-23T10:23:44;5.20;;;2.37;;
12356;SDS011;6243;51.244;6.774;2022-10-23T10:26:17;4.87;;;1.93;;
12356;SDS011;6243;51.244;6.774;2022-10-23T10:28:55;4.30;;;1.70;;
12356;SDS011;6243;51.244;6.774;2022-10-23T10:31:29;3.53;;;1.70;;
12356;SDS011;6243;51.244;6.774;2022-10-23T10:34:09;5.97;;;2.07;;
12356;SDS011;6243;51.244;6.774;2022-10-23T10:36:44;3.07;;;1.77;;
12356;SDS011;6243;51.244;6.774;2022-10-23T10:39:16;3.60;;;1.73;;
12356;SDS011;6243;51.244;6.774;2022-10-23T10:42:02;3.17;;;2.03;;
12356;SDS011;6243;51.244;6.774;2022-10-23T10:44:45;4.10;;;1.70;;
12356;SDS011;6243;51.244;6.774;2022-10-23T10:47:18;5.13;;;1.60;;
12356;SDS011;6243;51.244;6.774;2022-10-23T10:49:48;3.33;;;1.67;;
12356;SDS011;6243;51.244;6.774;2022-10-23T10:52:27;4.00;;;1.80;;
12356;SDS011;6243;51.244;6.774;2022-10-23T10:55:00;2.37;;;1.60;;
12356;SDS011;6243;51.244;6.774;2022-10-23T10:57:34;2.80;;;1.60;;
12356;SDS011;6243;51.244;6.774;2022-10-23T11:00:04;2.40;;;1.70;;
12356;SDS011;6243;51.244;6.774;2022-10-23T11:02:38;4.07;;;2.13;;
12356;SDS011;6243;51.244;6.774;2022-10-23T11:07:57;3.33;;;1.60;;
12356;SDS011;6243;51.244;6.774;2022-10-23T11:10:25;6.93;;;1.70;;
12356;SDS011;6243;51.244;6.774;2022-10-23T11:12:51;4.93;;;1.60;;
12356;SDS011;6243;51.244;6.774;2022-10-23T11:15:17;2.37;;;2.10;;
12356;SDS011;6243;51.244;6.774;2022-10-23T11:17:50;3.80;;;1.70;;
12356;SDS011;6243;51.244;6.774;2022-10-23T11:20:24;4.57;;;1.77;;
12356;SDS011;6243;51.244;6.774;2022-10-23T11:23:04;2.43;;;1.40;;
12356;SDS011;6243;51.244;6.774;2022-10-23T11:25:54;3.30;;;1.73;;
12356;SDS011;6243;51.244;6.774;2022-10-23T11:28:30;5.13;;;1.90;;
12356;SDS011;6243;51.244;6.774;2022-10-23T11:31:07;6.77;;;1.70;;
12356;SDS011;6243;51.244;6.774;2022-10-23T11:33:54;4.20;;;1.90;;
12356;SDS011;6243;51.244;6.774;2022-10-23T11:36:43;2.10;;;1.70;;
12356;SDS011;6243;51.244;6.774;2022-10-23T11:39:16;2.47;;;1.40;;
12356;SDS011;6243;51.244;6.774;2022-10-23T11:41:52;3.57;;;1.90;;
12356;SDS011;6243;51.244;6.774;2022-10-23T11:44:25;2.57;;;1.70;;
12356;SDS011;6243;51.244;6.774;2022-10-23T11:47:02;6.77;;;1.80;;
12356;SDS011;6243;51.244;6.774;2022-10-23T11:49:29;6.83;;;1.77;;
12356;SDS011;6243;51.244;6.774;2022-10-23T11:51:58;8.33;;;1.67;;
12356;SDS011;6243;51.244;6.774;2022-10-23T11:54:26;2.53;;;1.80;;
12356;SDS011;6243;51.244;6.774;2022-10-23T11:56:53;4.47;;;1.47;;
12356;SDS011;6243;51.244;6.774;2022-10-23T11:59:28;2.57;;;1.70;;
12356;SDS011;6243;51.244;6.774;2022-10-23T12:01:56;3.97;;;1.80;;
12356;SDS011;6243;51.244;6.774;2022-10-23T12:04:25;3.03;;;1.70;;
12356;SDS011;6243;51.244;6.774;2022-10-23T12:06:56;2.90;;;1.70;;
12356;SDS011;6243;51.244;6.774;2022-10-23T12:09:26;2.30;;;1.47;;
12356;SDS011;6243;51.244;6.774;2022-10-23T12:14:50;4.27;;;1.50;;
12356;SDS011;6243;51.244;6.774;2022-10-23T12:17:19;3.50;;;1.40;;
12356;SDS011;6243;51.244;6.774;2022-10-23T12:19:54;3.17;;;1.60;;
12356;SDS011;6243;51.244;6.774;2022-10-23T12:22:27;4.23;;;1.80;;
12356;SDS011;6243;51.244;6.774;2022-10-23T12:25:04;4.43;;;1.60;;
12356;SDS011;6243;51.244;6.774;2022-10-23T12:27:37;3.37;;;1.60;;
12356;SDS011;6243;51.244;6.774;2022-10-23T12:30:18;3.00;;;1.50;;
12356;SDS011;6243;51.244;6.774;2022-10-23T12:38:38;2.00;;;1.70;;
12356;SDS011;6243;51.244;6.774;2022-10-23T12:41:10;3.43;;;1.80;;
12356;SDS011;6243;51.244;6.774;2022-10-23T12:43:38;4.60;;;1.70;;
12356;SDS011;6243;51.244;6.774;2022-10-23T12:46:14;3.00;;;1.57;;
12356;SDS011;6243;51.244;6.774;2022-10-23T12:48:49;2.60;;;1.50;;
12356;SDS011;6243;51.244;6.774;2022-10-23T12:51:19;2.23;;;2.00;;
12356;SDS011;6243;51.244;6.774;2022-10-23T12:53:47;4.07;;;1.53;;
12356;SDS011;6243;51.244;6.774;2022-10-23T12:56:15;6.60;;;1.90;;
12356;SDS011;6243;51.244;6.774;2022-10-23T12:58:44;2.60;;;1.97;;
12356;SDS011;6243;51.244;6.774;2022-10-23T13:01:20;3.03;;;1.87;;
12356;SDS011;6243;51.244;6.774;2022-10-23T13:03:47;3.60;;;1.87;;
12356;SDS011;6243;51.244;6.774;2022-10-23T13:06:13;7.07;;;2.00;;
12356;SDS011;6243;51.244;6.774;2022-10-23T13:08:40;4.17;;;2.00;;
12356;SDS011;6243;51.244;6.774;2022-10-23T13:11:08;2.23;;;1.43;;
12356;SDS011;6243;51.244;6.774;2022-10-23T13:13:39;3.73;;;2.10;;
12356;SDS011;6243;51.244;6.774;2022-10-23T13:16:11;5.23;;;2.07;;
12356;SDS011;6243;51.244;6.774;2022-10-23T13:18:39;7.30;;;2.03;;
12356;SDS011;6243;51.244;6.774;2022-10-23T13:21:09;4.30;;;2.03;;
12356;SDS011;6243;51.244;6.774;2022-10-23T13:23:40;5.03;;;2.23;;
12356;SDS011;6243;51.244;6.774;2022-10-23T13:26:20;6.30;;;2.30;;
12356;SDS011;6243;51.244;6.774;2022-10-23T13:28:50;5.83;;;1.90;;
12356;SDS011;6243;51.244;6.774;2022-10-23T13:31:24;4.53;;;2.07;;
12356;SDS011;6243;51.244;6.774;2022-10-23T13:34:02;1.73;;;1.57;;
12356;SDS011;6243;51.244;6.774;2022-10-23T13:36:48;5.07;;;1.90;;
12356;SDS011;6243;51.244;6.774;2022-10-23T13:39:15;6.07;;;2.17;;
12356;SDS011;6243;51.244;6.774;2022-10-23T13:41:41;4.20;;;1.77;;
12356;SDS011;6243;51.244;6.774;2022-10-23T13:44:10;5.27;;;2.20;;
12356;SDS011;6243;51.244;6.774;2022-10-23T13:46:37;3.67;;;1.90;;
12356;SDS011;6243;51.244;6.774;2022-10-23T13:49:03;6.07;;;2.10;;
12356;SDS011;6243;51.244;6.774;2022-10-23T13:51:29;5.13;;;2.07;;
12356;SDS011;6243;51.244;6.774;2022-10-23T13:54:04;2.60;;;1.60;;
12356;SDS011;6243;51.244;6.774;2022-10-23T13:56:36;4.87;;;2.40;;
12356;SDS011;6243;51.244;6.774;2022-10-23T13:59:02;4.20;;;2.03;;
12356;SDS011;6243;51.244;6.774;2022-10-23T14:01:29;5.70;;;1.80;;
12356;SDS011;6243;51.244;6.774;2022-10-23T14:03:57;3.57;;;2.23;;
12356;SDS011;6243;51.244;6.774;2022-10-23T14:06:23;6.70;;;2.07;;
12356;SDS011;6243;51.244;6.774;2022-10-23T14:08:49;12.97;;;2.20;;
12356;SDS011;6243;51.244;6.774;2022-10-23T14:11:15;3.63;;;2.07;;
12356;SDS011;6243;51.244;6.774;2022-10-23T14:13:42;3.60;;;1.90;;
12356;SDS011;6243;51.244;6.774;2022-10-23T14:16:08;3.43;;;2.03;;
12356;SDS011;6243;51.244;6.774;2022-10-23T14:18:37;7.37;;;2.30;;
12356;SDS011;6243;51.244;6.774;2022-10-23T14:21:03;4.27;;;2.10;;
12356;SDS011;6243;51.244;6.774;2022-10-23T14:23:30;6.67;;;2.20;;
12356;SDS011;6243;51.244;6.774;2022-10-23T14:26:00;2.57;;;1.93;;
12356;SDS011;6243;51.244;6.774;2022-10-23T14:28:26;2.33;;;1.63;;
12356;SDS011;6243;51.244;6.774;2022-10-23T14:30:51;4.03;;;2.20;;
12356;SDS011;6243;51.244;6.774;2022-10-23T14:33:17;5.10;;;2.50;;
12356;SDS011;6243;51.244;6.774;2022-10-23T14:35:44;2.93;;;1.90;;
12356;SDS011;6243;51.244;6.774;2022-10-23T14:38:09;5.33;;;2.10;;
12356;SDS011;6243;51.244;6.774;2022-10-23T14:40:36;3.40;;;2.23;;
12356;SDS011;6243;51.244;6.774;2022-10-23T14:43:01;4.47;;;2.10;;
12356;SDS011;6243;51.244;6.774;2022-10-23T14:45:28;3.13;;;1.90;;
12356;SDS011;6243;51.244;6.774;2022-10-23T14:47:54;5.60;;;2.10;;
12356;SDS011;6243;51.244;6.774;2022-10-23T14:50:19;2.80;;;2.30;;
12356;SDS011;6243;51.244;6.774;2022-10-23T14:52:46;2.90;;;2.13;;
12356;SDS011;6243;51.244;6.774;2022-10-23T14:55:12;10.73;;;2.70;;
12356;SDS011;6243;51.244;6.774;2022-10-23T14:57:38;4.63;;;2.30;;
12356;SDS011;6243;51.244;6.774;2022-10-23T15:00:04;4.07;;;2.17;;
12356;SDS011;6243;51.244;6.774;2022-10-23T15:02:30;3.87;;;2.07;;
12356;SDS011;6243;51.244;6.774;2022-10-23T15:04:55;6.73;;;2.63;;
12356;SDS011;6243;51.244;6.774;2022-10-23T15:07:21;3.47;;;2.00;;
12356;SDS011;6243;51.244;6.774;2022-10-23T15:09:47;3.07;;;2.20;;
12356;SDS011;6243;51.244;6.774;2022-10-23T15:12:13;5.97;;;2.37;;
12356;SDS011;6243;51.244;6.774;2022-10-23T15:14:38;5.23;;;2.37;;
12356;SDS011;6243;51.244;6.774;2022-10-23T15:17:04;5.43;;;2.00;;
12356;SDS011;6243;51.244;6.774;2022-10-23T15:19:29;9.00;;;2.43;;
12356;SDS011;6243;51.244;6.774;2022-10-23T15:21:55;5.57;;;2.30;;
12356;SDS011;6243;51.244;6.774;2022-10-23T15:24:20;3.63;;;2.20;;